Time;durP1;ratioP1;P1;durP2;ratioP2;P2;SDS_P1;SDS_P2;PMS_P1;PMS_P2;Temp;Humidity;BMP_temperature;BMP_pressure;BME280_temperature;BME280_humidity;BME280_pressure;Samples;Min_cycle;Max_cycle;Signal;HPM_P1;HPM_P2
2021/12/05 00:22:50;;;;;;;6.68;5.05;;;3.10;99.90;;;;;;5028189;28;20030;-74
2021/12/05 00:25:26;;;;;;;9.25;5.38;;;3.00;99.90;;;;;;5031011;28;20037;-73
2021/12/05 00:28:39;;;;;;;5.13;4.63;;;3.00;99.90;;;;;;5013696;28;20029;-74
2021/12/05 00:33:56;;;;;;;5.63;5.07;;;3.00;99.90;;;;;;5011811;28;20228;-75
2021/12/05 00:47:37;;;;;;;5.30;4.80;;;2.90;99.90;;;;;;5005153;28;20041;-75
2021/12/05 00:58:45;;;;;;;6.55;4.50;;;2.90;99.90;;;;;;5019590;28;20030;-74
2021/12/05 01:03:50;;;;;;;6.80;4.93;;;2.70;99.90;;;;;;5028265;28;20018;-74
2021/12/05 01:16:41;;;;;;;6.85;5.50;;;2.50;99.90;;;;;;5034479;28;20029;-74
2021/12/05 01:19:09;;;;;;;6.05;5.32;;;2.50;99.90;;;;;;5032837;28;20022;-74
2021/12/05 01:21:37;;;;;;;8.18;5.93;;;2.40;99.90;;;;;;5026540;28;20026;-72
2021/12/05 01:24:18;;;;;;;7.97;5.85;;;2.50;99.90;;;;;;5028682;28;20028;-73
2021/12/05 01:32:41;;;;;;;9.35;5.20;;;2.50;99.90;;;;;;5010860;28;20028;-72
2021/12/05 01:40:30;;;;;;;7.22;4.57;;;2.60;99.90;;;;;;5026135;28;20068;-73
2021/12/05 01:48:47;;;;;;;8.65;4.30;;;2.60;99.90;;;;;;5005966;28;20459;-72
2021/12/05 01:53:53;;;;;;;5.53;3.92;;;2.50;99.90;;;;;;5019127;28;20060;-70
2021/12/05 01:59:24;;;;;;;5.47;4.03;;;2.50;99.90;;;;;;5025867;28;20034;-70
2021/12/05 02:32:49;;;;;;;6.45;3.72;;;2.40;99.90;;;;;;5013272;28;20034;-73
2021/12/05 02:35:00;;;;;;;5.93;3.70;;;2.30;99.90;;;;;;5017184;28;20180;-73
2021/12/05 02:37:50;;;;;;;7.10;4.30;;;2.30;99.90;;;;;;5018167;28;20130;-71
2021/12/05 02:40:28;;;;;;;6.03;4.10;;;2.30;99.90;;;;;;5018067;28;20033;-73
2021/12/05 02:45:24;;;;;;;6.15;4.07;;;2.40;99.90;;;;;;5028645;28;20034;-73
2021/12/05 02:47:52;;;;;;;8.95;4.30;;;2.30;99.90;;;;;;5032582;28;20033;-72
2021/12/05 02:50:21;;;;;;;5.68;4.15;;;2.20;99.90;;;;;;5032170;28;20063;-73
2021/12/05 02:52:47;;;;;;;7.82;4.05;;;2.20;99.90;;;;;;5021656;28;20022;-73
2021/12/05 02:55:25;;;;;;;10.27;4.10;;;2.20;99.90;;;;;;5015221;28;20108;-74
2021/12/05 02:58:02;;;;;;;6.15;4.43;;;2.20;99.90;;;;;;5021469;28;20018;-74
2021/12/05 03:00:43;;;;;;;6.45;3.90;;;2.20;99.90;;;;;;5010497;28;20113;-74
2021/12/05 03:03:18;;;;;;;7.78;4.03;;;2.10;99.90;;;;;;5022489;28;20025;-74
2021/12/05 03:05:46;;;;;;;10.75;3.97;;;2.00;99.90;;;;;;5010424;28;20049;-74
2021/12/05 03:08:12;;;;;;;7.03;3.92;;;2.10;99.90;;;;;;5015176;28;20021;-75
2021/12/05 03:10:39;;;;;;;8.35;4.28;;;2.00;99.90;;;;;;5022498;28;20034;-74
2021/12/05 03:13:05;;;;;;;6.95;3.90;;;2.00;99.90;;;;;;5025573;28;20021;-74
2021/12/05 03:15:31;;;;;;;9.43;4.75;;;2.00;99.90;;;;;;5012057;28;20037;-72
2021/12/05 03:17:56;;;;;;;9.25;4.68;;;2.10;99.90;;;;;;5012249;28;20510;-74
2021/12/05 03:20:22;;;;;;;7.07;4.10;;;2.00;99.90;;;;;;5021771;28;20033;-74
2021/12/05 03:22:51;;;;;;;8.32;4.00;;;2.10;99.90;;;;;;5014347;28;20030;-73
2021/12/05 03:25:16;;;;;;;8.95;4.25;;;2.00;99.90;;;;;;5012407;28;20022;-74
2021/12/05 03:27:42;;;;;;;9.48;4.38;;;2.00;99.90;;;;;;5013707;28;20033;-73
2021/12/05 03:30:10;;;;;;;6.60;3.85;;;2.00;99.90;;;;;;5010767;28;20453;-73
2021/12/05 03:32:37;;;;;;;8.27;3.85;;;2.10;99.90;;;;;;5011998;28;20022;-73
2021/12/05 03:35:05;;;;;;;9.18;4.07;;;2.00;99.90;;;;;;5021224;28;20415;-71
2021/12/05 03:37:31;;;;;;;6.72;3.95;;;2.00;99.90;;;;;;5017210;28;20026;-73
2021/12/05 03:39:56;;;;;;;8.93;4.00;;;2.00;99.90;;;;;;5019811;28;20045;-73
2021/12/05 03:42:22;;;;;;;6.68;3.40;;;1.90;99.90;;;;;;5016071;28;20030;-73
2021/12/05 03:44:47;;;;;;;7.88;3.33;;;1.90;99.90;;;;;;5020885;28;20033;-73
2021/12/05 03:47:13;;;;;;;9.23;4.15;;;1.80;99.90;;;;;;5014379;28;20048;-73
2021/12/05 03:49:39;;;;;;;6.90;3.60;;;1.90;99.90;;;;;;5021211;28;20029;-74
2021/12/05 03:52:08;;;;;;;5.38;3.83;;;1.90;99.90;;;;;;5024948;28;20053;-73
2021/12/05 03:54:34;;;;;;;7.75;3.80;;;2.00;99.90;;;;;;5016714;28;20084;-73
2021/12/05 03:57:02;;;;;;;10.10;4.10;;;1.90;99.90;;;;;;5009356;28;20057;-73
2021/12/05 03:59:28;;;;;;;5.57;3.67;;;1.80;99.90;;;;;;5011565;28;20026;-73
2021/12/05 04:01:58;;;;;;;6.88;3.97;;;1.80;99.90;;;;;;5027400;28;20028;-73
2021/12/05 04:04:24;;;;;;;8.40;4.32;;;1.80;99.90;;;;;;5024546;28;20419;-73
2021/12/05 04:06:50;;;;;;;9.18;4.05;;;1.80;99.90;;;;;;5016744;28;20017;-73
2021/12/05 04:09:18;;;;;;;8.07;3.83;;;1.80;99.90;;;;;;5019662;28;20076;-73
2021/12/05 04:11:55;;;;;;;8.27;4.63;;;1.80;99.90;;;;;;5024752;28;20080;-73
2021/12/05 04:14:22;;;;;;;9.07;3.85;;;1.70;99.90;;;;;;5010171;28;20030;-73
2021/12/05 04:16:48;;;;;;;9.10;4.55;;;1.70;99.90;;;;;;5015591;28;20471;-73
2021/12/05 04:19:13;;;;;;;10.43;4.57;;;1.60;99.90;;;;;;5010214;28;20030;-73
2021/12/05 04:21:39;;;;;;;9.07;4.30;;;1.60;99.90;;;;;;5011456;28;20033;-72
2021/12/05 04:24:07;;;;;;;8.20;4.28;;;1.60;99.90;;;;;;5011659;28;20052;-71
2021/12/05 04:26:33;;;;;;;9.27;4.57;;;1.60;99.90;;;;;;5022755;28;20067;-73
2021/12/05 04:28:59;;;;;;;8.80;4.55;;;1.60;99.90;;;;;;5023753;28;20509;-74
2021/12/05 04:31:24;;;;;;;11.05;5.50;;;1.70;99.90;;;;;;5017645;28;20029;-74
2021/12/05 04:33:51;;;;;;;11.50;5.32;;;1.70;99.90;;;;;;5018564;28;20499;-74
2021/12/05 04:36:17;;;;;;;13.50;5.20;;;1.70;99.90;;;;;;5022576;28;20036;-74
2021/12/05 04:38:43;;;;;;;8.95;4.55;;;1.70;99.90;;;;;;5019892;28;20030;-73
2021/12/05 04:41:08;;;;;;;10.45;4.32;;;1.70;99.90;;;;;;5019965;28;20025;-73
2021/12/05 04:43:38;;;;;;;10.52;4.60;;;1.70;99.90;;;;;;5013618;28;20113;-73
2021/12/05 04:46:10;;;;;;;9.05;4.85;;;1.70;99.90;;;;;;5014650;28;20018;-73
2021/12/05 04:48:36;;;;;;;12.38;4.10;;;1.60;99.90;;;;;;5015595;28;20480;-74
2021/12/05 04:51:03;;;;;;;12.00;4.70;;;1.70;99.90;;;;;;5019921;28;20083;-74
2021/12/05 04:53:28;;;;;;;7.47;4.45;;;1.60;99.90;;;;;;5015110;28;20384;-73
2021/12/05 04:55:56;;;;;;;9.63;4.53;;;1.60;99.90;;;;;;5014626;28;20030;-73
2021/12/05 04:58:21;;;;;;;8.35;4.75;;;1.60;99.90;;;;;;5019500;28;20036;-72
2021/12/05 05:00:47;;;;;;;9.50;4.53;;;1.60;99.90;;;;;;5016247;28;20022;-72
2021/12/05 05:03:14;;;;;;;6.75;4.30;;;1.60;99.90;;;;;;5014748;28;20472;-73
2021/12/05 05:05:46;;;;;;;11.90;5.00;;;1.70;99.90;;;;;;5014428;28;20022;-72
2021/12/05 05:08:12;;;;;;;11.50;5.28;;;1.70;99.90;;;;;;5014581;28;20484;-72
2021/12/05 05:10:38;;;;;;;13.15;5.53;;;1.60;99.90;;;;;;5014837;28;20044;-73
2021/12/05 05:13:05;;;;;;;11.13;5.05;;;1.60;99.90;;;;;;5013179;28;20029;-72
2021/12/05 05:15:31;;;;;;;10.55;5.35;;;1.60;99.90;;;;;;5014243;28;20018;-73
2021/12/05 05:18:01;;;;;;;11.25;4.95;;;1.70;99.90;;;;;;5014263;28;20022;-71
2021/12/05 05:21:12;;;;;;;7.93;4.80;;;1.70;99.90;;;;;;5017959;28;20064;-73
2021/12/05 05:39:35;;;;;;;9.45;5.25;;;1.70;99.90;;;;;;5017552;28;20040;-72
2021/12/05 05:42:25;;;;;;;14.32;6.10;;;1.70;99.90;;;;;;5019548;28;20037;-71
2021/12/05 05:49:50;;;;;;;11.55;4.93;;;1.70;99.90;;;;;;5026878;28;20412;-72
2021/12/05 05:52:20;;;;;;;15.60;13.15;;;1.80;99.90;;;;;;5020267;28;20468;-72
2021/12/05 05:54:48;;;;;;;10.38;5.78;;;1.70;99.90;;;;;;5020937;28;20033;-72
2021/12/05 06:00:09;;;;;;;12.27;5.28;;;1.80;99.90;;;;;;5033069;28;20116;-71
2021/12/05 06:05:16;;;;;;;10.60;5.28;;;1.70;99.90;;;;;;5019869;28;20045;-73
2021/12/05 06:07:44;;;;;;;11.68;5.60;;;1.70;99.90;;;;;;5020113;28;20029;-72
2021/12/05 06:10:12;;;;;;;15.95;5.35;;;1.70;99.90;;;;;;5013369;28;20022;-72
2021/12/05 06:12:39;;;;;;;10.23;5.75;;;1.70;99.90;;;;;;5013281;28;20104;-73
2021/12/05 06:15:07;;;;;;;11.48;5.10;;;1.70;99.90;;;;;;5011896;28;20063;-72
2021/12/05 06:17:33;;;;;;;11.80;5.38;;;1.70;99.90;;;;;;5014982;28;20221;-73
2021/12/05 06:19:59;;;;;;;11.25;5.28;;;1.80;99.90;;;;;;5013034;28;20121;-73
2021/12/05 06:22:24;;;;;;;8.55;4.57;;;1.60;99.90;;;;;;5013065;28;20025;-73
2021/12/05 06:24:51;;;;;;;9.73;5.05;;;1.60;99.90;;;;;;5012801;28;20444;-72
2021/12/05 06:27:16;;;;;;;10.70;4.85;;;1.60;99.90;;;;;;5024661;28;20395;-72
2021/12/05 06:29:49;;;;;;;11.30;5.20;;;1.60;99.90;;;;;;5019317;28;20029;-72
2021/12/05 06:43:04;;;;;;;14.70;8.65;;;1.70;99.90;;;;;;4988408;28;20506;-72
2021/12/05 06:48:13;;;;;;;10.32;6.00;;;1.60;99.90;;;;;;5005483;28;20040;-74
2021/12/05 06:50:39;;;;;;;13.90;5.90;;;1.60;99.90;;;;;;5012558;28;20030;-73
2021/12/05 06:53:06;;;;;;;11.40;6.13;;;1.60;99.90;;;;;;5012624;28;20045;-71
2021/12/05 06:55:32;;;;;;;10.52;5.80;;;1.50;99.90;;;;;;5030737;28;20414;-72
2021/12/05 06:57:57;;;;;;;11.32;5.53;;;1.40;99.90;;;;;;5020223;28;20104;-71
2021/12/05 07:00:27;;;;;;;10.35;6.03;;;1.40;99.90;;;;;;5025458;28;20026;-73
2021/12/05 07:02:52;;;;;;;15.88;7.75;;;1.30;99.90;;;;;;5012370;28;20026;-72
2021/12/05 07:07:53;;;;;;;18.85;8.98;;;1.30;99.90;;;;;;5012367;28;20121;-73
2021/12/05 07:10:20;;;;;;;12.88;7.95;;;1.30;99.90;;;;;;5010973;28;20490;-72
2021/12/05 07:13:48;;;;;;;14.18;8.63;;;1.20;99.90;;;;;;5010791;28;20038;-74
2021/12/05 07:15:47;;;;;;;10.60;6.68;;;1.20;99.90;;;;;;5008692;28;20137;-73
2021/12/05 07:21:17;;;;;;;12.98;6.10;;;0.90;99.90;;;;;;5022647;28;20025;-72
2021/12/05 07:23:50;;;;;;;17.05;10.75;;;0.80;99.90;;;;;;5010485;28;20029;-73
2021/12/05 07:26:43;;;;;;;17.73;10.95;;;0.80;99.90;;;;;;5017421;28;20100;-72
2021/12/05 07:42:54;;;;;;;16.75;10.77;;;0.80;99.90;;;;;;5010767;28;20037;-73
2021/12/05 07:45:27;;;;;;;21.23;14.20;;;0.80;99.90;;;;;;5013345;28;20018;-73
2021/12/05 07:47:55;;;;;;;18.27;11.02;;;0.90;99.90;;;;;;5013285;28;20018;-73
2021/12/05 07:50:31;;;;;;;15.93;8.50;;;1.00;99.90;;;;;;5015603;28;20053;-73
2021/12/05 07:53:05;;;;;;;13.85;6.60;;;1.00;99.90;;;;;;5013102;28;20025;-73
2021/12/05 07:55:37;;;;;;;14.95;7.15;;;1.10;99.90;;;;;;5012672;28;20014;-74
2021/12/05 08:00:57;;;;;;;18.50;7.07;;;1.10;99.90;;;;;;5011436;28;20416;-74
2021/12/05 08:14:38;;;;;;;25.02;19.00;;;1.20;99.90;;;;;;5016099;28;20467;-73
2021/12/05 08:17:06;;;;;;;18.23;13.85;;;1.20;99.90;;;;;;5024053;28;20446;-73
2021/12/05 08:19:32;;;;;;;29.98;22.63;;;1.20;99.90;;;;;;5027754;28;20038;-73
2021/12/05 08:21:57;;;;;;;29.17;18.58;;;1.30;99.90;;;;;;5019137;28;20050;-73
2021/12/05 08:24:31;;;;;;;23.00;12.75;;;1.30;99.90;;;;;;5031330;28;20032;-72
2021/12/05 08:26:56;;;;;;;20.80;10.45;;;1.30;99.90;;;;;;5019240;28;20029;-72
2021/12/05 08:29:32;;;;;;;15.73;9.15;;;1.30;99.90;;;;;;5018946;28;20051;-72
2021/12/05 08:32:14;;;;;;;13.63;10.32;;;1.40;99.90;;;;;;5025539;28;20108;-73
2021/12/05 08:35:01;;;;;;;15.98;10.55;;;1.40;99.90;;;;;;5009579;28;20507;-70
2021/12/05 08:45:45;;;;;;;14.52;8.70;;;1.50;99.90;;;;;;5026312;28;20050;-74
2021/12/05 09:21:29;;;;;;;11.32;6.38;;;1.60;99.90;;;;;;5018279;28;20091;-73
2021/12/05 09:24:20;;;;;;;;;;;1.60;99.90;;;;;;5011132;28;20050;-73
2021/12/05 09:27:45;;;;;;;12.25;6.32;;;1.60;99.90;;;;;;5020577;28;19920;-73
2021/12/05 09:51:39;;;;;;;11.80;5.88;;;1.90;99.90;;;;;;5023142;28;20032;-72
2021/12/05 10:10:55;;;;;;;11.15;5.47;;;2.10;99.90;;;;;;5022899;28;19909;-74
2021/12/05 10:13:29;;;;;;;11.43;4.90;;;2.10;99.90;;;;;;5023875;28;20391;-72
2021/12/05 10:35:52;;;;;;;13.45;7.32;;;2.30;99.90;;;;;;5011083;28;20458;-73
2021/12/05 10:38:33;;;;;;;13.70;6.60;;;2.30;99.90;;;;;;5019188;28;20026;-73
2021/12/05 10:43:42;;;;;;;10.30;6.95;;;2.50;99.90;;;;;;5019087;28;20967;-74
2021/12/05 10:46:12;;;;;;;13.73;8.10;;;2.60;99.90;;;;;;5018148;28;20026;-73
2021/12/05 10:48:48;;;;;;;12.10;8.18;;;2.60;99.90;;;;;;5015315;28;20032;-73
2021/12/05 10:51:15;;;;;;;;;;;2.70;99.90;;;;;;5013146;28;20108;-73
2021/12/05 10:53:49;;;;;;;11.27;7.45;;;2.70;99.90;;;;;;5021188;28;20318;-73
2021/12/05 10:56:18;;;;;;;8.35;6.50;;;2.80;99.90;;;;;;5022085;28;20025;-73
2021/12/05 10:59:08;;;;;;;9.40;6.40;;;2.90;99.90;;;;;;5013504;28;20423;-75
2021/12/05 11:01:48;;;;;;;10.65;5.35;;;3.00;99.90;;;;;;5025920;28;20095;-72
2021/12/05 11:04:23;;;;;;;8.70;5.40;;;3.10;99.90;;;;;;5011561;28;20113;-72
2021/12/05 11:07:08;;;;;;;8.18;5.75;;;3.10;99.90;;;;;;5012752;28;20030;-72
2021/12/05 11:09:39;;;;;;;10.45;7.07;;;3.20;99.90;;;;;;5007853;28;20021;-72
2021/12/05 11:12:14;;;;;;;9.30;6.45;;;3.30;99.90;;;;;;5010159;28;20068;-72
2021/12/05 11:15:02;;;;;;;11.52;7.22;;;3.50;99.90;;;;;;5013488;28;20693;-73
2021/12/05 11:17:36;;;;;;;11.43;6.28;;;3.50;99.90;;;;;;5012684;28;20037;-72
2021/12/05 11:20:28;;;;;;;6.55;4.45;;;3.60;99.90;;;;;;5011962;28;20022;-72
2021/12/05 11:22:53;;;;;;;11.18;7.03;;;3.70;99.90;;;;;;5013669;28;20036;-72
2021/12/05 11:25:24;;;;;;;9.27;5.55;;;3.70;99.90;;;;;;5011847;28;20022;-72
2021/12/05 11:27:53;;;;;;;10.10;6.95;;;3.90;99.90;;;;;;5017642;28;20023;-71
2021/12/05 11:30:25;;;;;;;10.75;7.15;;;3.90;99.90;;;;;;5014025;28;20488;-72
2021/12/05 11:32:51;;;;;;;9.68;6.72;;;3.90;99.90;;;;;;5010910;28;20036;-72
2021/12/05 11:35:37;;;;;;;16.60;10.70;;;3.90;99.90;;;;;;5010044;28;20095;-72
2021/12/05 11:38:24;;;;;;;19.27;10.15;;;3.90;99.90;;;;;;5011124;28;20026;-71
2021/12/05 11:40:58;;;;;;;9.55;6.65;;;3.90;99.90;;;;;;5012405;28;20026;-71
2021/12/05 11:43:47;;;;;;;5.95;3.83;;;3.90;99.90;;;;;;5027273;28;20021;-71
2021/12/05 11:46:14;;;;;;;9.52;4.25;;;3.90;99.90;;;;;;5011158;28;20025;-71
2021/12/05 11:48:47;;;;;;;9.27;6.10;;;3.90;99.90;;;;;;5017713;28;20037;-71
2021/12/05 11:51:34;;;;;;;11.82;6.22;;;4.00;99.90;;;;;;5007579;28;20017;-72
2021/12/05 11:54:03;;;;;;;11.32;6.88;;;3.90;99.90;;;;;;5010491;28;20022;-73
2021/12/05 11:56:34;;;;;;;7.53;5.10;;;4.00;99.90;;;;;;5012468;28;20022;-72
2021/12/05 11:59:11;;;;;;;8.70;3.90;;;4.00;99.90;;;;;;5010290;28;20033;-73
2021/12/05 12:01:57;;;;;;;7.43;3.88;;;4.20;99.90;;;;;;5014853;28;20030;-72
2021/12/05 12:04:36;;;;;;;7.00;3.78;;;4.20;99.90;;;;;;5014049;28;20032;-74
2021/12/05 12:07:13;;;;;;;7.47;4.32;;;4.20;99.90;;;;;;5012604;28;20144;-71
2021/12/05 12:09:39;;;;;;;7.95;4.20;;;4.20;99.90;;;;;;5009470;28;20380;-74
2021/12/05 12:12:06;;;;;;;6.32;3.53;;;4.10;99.90;;;;;;5011806;28;20608;-74
2021/12/05 12:14:32;;;;;;;8.60;3.83;;;4.10;99.90;;;;;;5011725;28;20030;-74
2021/12/05 12:16:58;;;;;;;4.75;3.38;;;4.20;99.90;;;;;;5016626;28;20018;-72
2021/12/05 12:19:25;;;;;;;9.23;3.55;;;4.20;99.90;;;;;;5016447;28;20022;-71
2021/12/05 12:21:53;;;;;;;5.22;3.05;;;4.20;99.90;;;;;;5015826;28;20026;-74
2021/12/05 12:24:19;;;;;;;8.70;3.50;;;4.20;99.90;;;;;;5016301;28;20040;-74
2021/12/05 12:26:45;;;;;;;8.35;4.43;;;4.20;99.90;;;;;;5029089;28;20026;-73
2021/12/05 12:29:12;;;;;;;6.55;4.07;;;4.20;99.90;;;;;;5025990;28;20373;-73
2021/12/05 12:31:44;;;;;;;8.00;4.50;;;4.20;99.90;;;;;;5014179;28;20029;-74
2021/12/05 12:34:13;;;;;;;7.68;5.40;;;4.20;99.90;;;;;;5014331;28;20057;-73
2021/12/05 12:36:48;;;;;;;5.20;3.72;;;4.20;99.90;;;;;;5012697;28;20048;-73
2021/12/05 12:39:16;;;;;;;7.97;3.40;;;4.10;99.90;;;;;;5011013;28;20030;-73
2021/12/05 12:41:59;;;;;;;7.32;4.80;;;4.00;99.90;;;;;;5011620;28;20022;-73
2021/12/05 12:44:25;;;;;;;6.47;4.05;;;4.10;99.90;;;;;;5020818;28;20018;-73
2021/12/05 12:46:57;;;;;;;6.45;4.47;;;4.10;99.90;;;;;;5018771;28;20030;-72
2021/12/05 12:49:30;;;;;;;7.07;4.35;;;4.10;99.90;;;;;;5018540;28;20029;-73
2021/12/05 12:52:03;;;;;;;8.05;4.53;;;4.10;99.90;;;;;;5013000;28;20025;-73
2021/12/05 12:54:29;;;;;;;7.95;4.40;;;4.10;99.90;;;;;;5021171;28;20072;-73
2021/12/05 12:57:03;;;;;;;9.65;5.20;;;4.00;99.90;;;;;;5025027;28;20026;-72
2021/12/05 12:59:33;;;;;;;6.43;4.22;;;4.20;99.90;;;;;;5015479;28;20037;-73
2021/12/05 13:12:44;;;;;;;12.43;7.10;;;4.00;99.90;;;;;;5017170;28;20029;-72
2021/12/05 13:15:40;;;;;;;11.27;7.43;;;4.00;99.90;;;;;;5014042;28;20018;-73
2021/12/05 13:18:13;;;;;;;12.38;7.72;;;3.90;99.90;;;;;;5015335;28;20041;-72
2021/12/05 13:20:42;;;;;;;9.65;7.72;;;4.00;99.90;;;;;;5014285;28;20393;-73
2021/12/05 13:23:26;;;;;;;10.95;6.32;;;4.00;99.90;;;;;;5017340;28;20488;-73
2021/12/05 13:26:23;;;;;;;6.88;5.10;;;4.00;99.90;;;;;;5017262;28;20056;-73
2021/12/05 13:29:12;;;;;;;7.72;5.70;;;3.90;99.90;;;;;;5020818;28;20523;-72
2021/12/05 13:31:43;;;;;;;21.33;17.10;;;4.00;99.90;;;;;;5015343;28;20038;-73
2021/12/05 13:34:35;;;;;;;20.25;18.15;;;3.90;99.90;;;;;;5015314;28;20030;-72
2021/12/05 13:37:06;;;;;;;16.98;15.15;;;3.90;99.90;;;;;;5013853;28;20033;-73
2021/12/05 13:39:47;;;;;;;10.75;9.32;;;3.90;99.90;;;;;;5021370;28;20411;-73
2021/12/05 13:42:18;;;;;;;8.05;4.65;;;3.90;99.90;;;;;;5018540;28;20484;-72
2021/12/05 13:45:21;;;;;;;7.22;4.03;;;3.90;99.90;;;;;;5020157;28;20026;-72
2021/12/05 13:47:52;;;;;;;7.50;4.38;;;3.90;99.90;;;;;;5023982;28;20044;-73
2021/12/05 13:50:18;;;;;;;7.13;3.78;;;4.00;99.90;;;;;;5021749;28;20044;-73
2021/12/05 13:52:55;;;;;;;7.20;3.85;;;3.90;99.90;;;;;;5014862;28;20453;-73
2021/12/05 13:55:39;;;;;;;5.22;3.97;;;4.00;99.90;;;;;;5020529;28;20484;-72
2021/12/05 13:58:36;;;;;;;7.78;4.80;;;4.10;99.90;;;;;;5012115;28;20065;-72
2021/12/05 14:01:04;;;;;;;7.30;4.85;;;4.10;99.90;;;;;;5013774;28;20109;-72
2021/12/05 14:03:51;;;;;;;8.70;4.80;;;4.10;99.90;;;;;;5015475;28;20104;-73
2021/12/05 14:06:44;;;;;;;7.55;5.60;;;4.00;99.90;;;;;;5013531;28;20022;-72
2021/12/05 14:09:27;;;;;;;9.10;5.07;;;4.00;99.90;;;;;;5019902;28;20026;-73
2021/12/05 14:11:52;;;;;;;8.52;5.07;;;3.90;99.90;;;;;;5019087;28;20061;-70
2021/12/05 14:14:27;;;;;;;6.55;4.55;;;4.00;99.90;;;;;;5017538;28;20412;-72
2021/12/05 14:16:55;;;;;;;8.02;4.40;;;4.00;99.90;;;;;;5017954;28;20026;-72
2021/12/05 14:19:25;;;;;;;12.80;10.55;;;4.10;99.90;;;;;;5019889;28;20036;-72
2021/12/05 14:21:53;;;;;;;9.50;4.65;;;4.10;99.90;;;;;;5021964;28;20017;-73
2021/12/05 14:24:22;;;;;;;5.80;3.80;;;4.10;99.90;;;;;;5020582;28;20018;-72
2021/12/05 14:26:55;;;;;;;6.20;3.85;;;4.10;99.90;;;;;;5013051;28;20022;-72
2021/12/05 14:29:24;;;;;;;5.70;3.55;;;4.10;99.90;;;;;;5012695;28;20029;-72
2021/12/05 14:31:54;;;;;;;6.45;4.10;;;4.00;99.90;;;;;;5019928;28;20053;-72
2021/12/05 14:34:20;;;;;;;6.03;3.33;;;3.80;99.90;;;;;;5020131;28;20053;-72
2021/12/05 14:36:52;;;;;;;4.00;2.95;;;3.60;99.90;;;;;;5020849;28;20037;-73
2021/12/05 14:39:30;;;;;;;7.53;5.43;;;3.50;99.90;;;;;;5025282;28;20033;-72
2021/12/05 14:42:04;;;;;;;8.30;6.68;;;3.50;99.90;;;;;;5023407;28;20032;-72
2021/12/05 14:44:30;;;;;;;8.23;5.97;;;3.40;99.90;;;;;;5021910;28;20026;-73
2021/12/05 14:47:05;;;;;;;4.82;3.67;;;3.40;99.90;;;;;;5021933;28;20033;-72
2021/12/05 14:49:35;;;;;;;4.07;3.03;;;3.50;99.90;;;;;;5012311;28;20018;-72
2021/12/05 14:52:02;;;;;;;6.03;5.40;;;3.50;99.90;;;;;;5016791;28;20025;-72
2021/12/05 14:54:35;;;;;;;7.53;5.63;;;3.50;99.90;;;;;;5022953;28;20071;-72
2021/12/05 14:57:06;;;;;;;7.95;6.00;;;3.50;99.90;;;;;;5012546;28;20028;-72
2021/12/05 14:59:31;;;;;;;6.05;4.30;;;3.50;99.90;;;;;;5017562;28;20037;-72
2021/12/05 15:01:58;;;;;;;5.30;4.25;;;3.40;99.90;;;;;;5018482;28;20018;-72
2021/12/05 15:04:29;;;;;;;5.60;3.67;;;3.50;99.90;;;;;;5016654;28;20495;-72
2021/12/05 15:06:55;;;;;;;10.13;6.75;;;3.40;99.90;;;;;;5020429;28;20029;-73
2021/12/05 15:09:37;;;;;;;10.23;6.57;;;3.40;99.90;;;;;;5012257;28;20029;-72
2021/12/05 15:12:12;;;;;;;12.48;6.88;;;3.40;99.90;;;;;;5016838;28;20033;-72
2021/12/05 15:14:40;;;;;;;8.90;5.75;;;3.40;99.90;;;;;;5021253;28;20121;-72
2021/12/05 15:17:27;;;;;;;8.00;5.15;;;3.40;99.90;;;;;;5015327;28;20017;-72
2021/12/05 15:19:56;;;;;;;7.70;4.57;;;3.50;99.90;;;;;;5014920;28;20059;-73
2021/12/05 15:22:22;;;;;;;4.75;3.38;;;3.30;99.90;;;;;;5010376;28;20025;-73
2021/12/05 15:24:52;;;;;;;8.30;4.20;;;3.30;99.90;;;;;;5016954;28;20419;-72
2021/12/05 15:27:21;;;;;;;5.97;3.97;;;3.30;99.90;;;;;;5008753;28;20073;-72
2021/12/05 15:29:49;;;;;;;6.07;4.28;;;3.20;99.90;;;;;;5016965;28;20412;-71
2021/12/05 15:32:20;;;;;;;8.32;4.80;;;3.20;99.90;;;;;;5016094;28;20447;-72
2021/12/05 15:34:50;;;;;;;10.05;5.85;;;3.20;99.90;;;;;;5016547;28;20018;-72
2021/12/05 15:37:15;;;;;;;9.85;5.95;;;3.30;99.90;;;;;;5013637;28;20058;-70
2021/12/05 15:39:43;;;;;;;10.90;8.20;;;3.30;99.90;;;;;;5012145;28;20076;-72
2021/12/05 15:42:14;;;;;;;12.93;11.55;;;3.20;99.90;;;;;;5012865;28;20480;-72
2021/12/05 15:44:40;;;;;;;11.48;9.23;;;3.20;99.90;;;;;;5012417;28;20698;-72
2021/12/05 15:47:13;;;;;;;13.95;12.43;;;3.20;99.90;;;;;;5011117;28;20097;-72
2021/12/05 15:50:00;;;;;;;18.02;16.10;;;3.20;99.90;;;;;;5014966;28;20036;-72
2021/12/05 15:52:34;;;;;;;20.60;18.52;;;3.20;99.90;;;;;;5013353;28;20018;-72
2021/12/05 15:55:02;;;;;;;20.67;17.65;;;3.20;99.90;;;;;;5013482;28;20527;-72
2021/12/05 15:57:34;;;;;;;23.35;20.52;;;3.30;99.90;;;;;;5012346;28;20109;-72
2021/12/05 16:00:05;;;;;;;22.40;20.00;;;3.20;99.90;;;;;;5012086;28;20034;-72
2021/12/05 16:02:30;;;;;;;21.52;19.23;;;3.30;99.90;;;;;;5012387;28;20037;-72
2021/12/05 16:04:56;;;;;;;26.88;21.75;;;3.20;99.90;;;;;;5013267;28;20408;-72
2021/12/05 16:07:26;;;;;;;14.52;11.80;;;3.20;99.90;;;;;;5018977;28;20024;-72
2021/12/05 16:09:52;;;;;;;13.93;10.30;;;3.20;99.90;;;;;;5014610;28;20029;-72
2021/12/05 16:12:20;;;;;;;11.50;9.68;;;3.20;99.90;;;;;;5019553;28;20018;-72
2021/12/05 16:14:52;;;;;;;7.10;5.25;;;3.10;99.90;;;;;;5014454;28;20484;-72
2021/12/05 16:17:27;;;;;;;5.53;4.93;;;3.10;99.90;;;;;;5013069;28;20018;-72
2021/12/05 16:20:07;;;;;;;7.30;4.80;;;3.00;99.90;;;;;;5015486;28;20484;-73
2021/12/05 16:22:33;;;;;;;6.03;3.08;;;2.90;99.90;;;;;;5017067;28;20503;-72
2021/12/05 16:25:16;;;;;;;5.32;3.45;;;2.90;99.90;;;;;;5023214;28;20052;-72
2021/12/05 16:28:12;;;;;;;6.07;3.97;;;2.90;99.90;;;;;;5016006;28;20034;-73
2021/12/05 16:30:41;;;;;;;8.70;5.63;;;2.90;99.90;;;;;;5018374;28;20038;-73
2021/12/05 16:33:08;;;;;;;10.45;8.13;;;2.90;99.90;;;;;;5018175;28;20399;-72
2021/12/05 16:35:41;;;;;;;12.55;9.95;;;2.80;99.90;;;;;;5023155;28;20048;-72
2021/12/05 16:38:31;;;;;;;13.70;9.40;;;2.70;99.90;;;;;;5017301;28;20017;-72
2021/12/05 16:41:02;;;;;;;10.98;8.68;;;2.70;99.90;;;;;;5022925;28;20100;-72
2021/12/05 16:43:29;;;;;;;11.77;8.90;;;2.60;99.90;;;;;;5015704;28;20052;-71
2021/12/05 16:46:03;;;;;;;10.63;9.07;;;2.70;99.90;;;;;;5017640;28;20487;-73
2021/12/05 16:48:28;;;;;;;15.20;12.93;;;2.70;99.90;;;;;;5018772;28;20018;-72
2021/12/05 16:50:54;;;;;;;14.10;10.50;;;2.80;99.90;;;;;;5018406;28;20496;-73
2021/12/05 16:53:31;;;;;;;10.30;8.73;;;2.70;99.90;;;;;;5010299;28;20030;-73
2021/12/05 16:56:00;;;;;;;10.38;8.85;;;2.70;99.90;;;;;;5015726;28;20025;-73
2021/12/05 16:58:25;;;;;;;9.60;8.18;;;2.70;99.90;;;;;;5012899;28;20480;-73
2021/12/05 17:00:53;;;;;;;10.38;7.72;;;2.70;99.90;;;;;;5018042;28;20040;-74
2021/12/05 17:03:24;;;;;;;9.93;7.20;;;2.70;99.90;;;;;;5018956;28;20049;-72
2021/12/05 17:05:53;;;;;;;10.63;6.10;;;2.70;99.90;;;;;;5018731;28;20022;-72
2021/12/05 17:08:22;;;;;;;7.43;5.47;;;2.70;99.90;;;;;;5014158;28;20037;-72
2021/12/05 17:11:02;;;;;;;6.80;4.88;;;2.70;99.90;;;;;;5015293;28;20029;-72
2021/12/05 17:13:36;;;;;;;5.88;4.22;;;2.70;99.90;;;;;;5016769;28;20033;-72
2021/12/05 17:16:06;;;;;;;7.32;5.43;;;2.80;99.90;;;;;;5017004;28;20025;-72
2021/12/05 17:18:31;;;;;;;9.55;7.90;;;2.80;99.90;;;;;;5017599;28;20029;-72
2021/12/05 17:21:00;;;;;;;8.98;7.55;;;2.80;99.90;;;;;;5020992;28;20014;-72
2021/12/05 17:23:30;;;;;;;17.40;10.13;;;2.80;99.90;;;;;;5017161;28;20026;-72
2021/12/05 17:26:16;;;;;;;12.10;9.40;;;2.50;99.90;;;;;;5023326;28;20045;-71
2021/12/05 17:29:06;;;;;;;41.85;37.90;;;2.50;99.90;;;;;;5020181;28;20030;-73
2021/12/05 17:31:43;;;;;;;13.45;12.13;;;2.40;99.90;;;;;;5010861;28;20456;-74
2021/12/05 17:34:13;;;;;;;10.98;7.57;;;2.40;99.90;;;;;;5012447;28;20025;-72
2021/12/05 17:36:41;;;;;;;10.98;9.85;;;2.40;99.90;;;;;;5019215;28;20109;-73
2021/12/05 17:39:12;;;;;;;12.45;11.15;;;2.50;99.90;;;;;;5013449;28;20014;-72
2021/12/05 17:41:39;;;;;;;11.63;9.35;;;2.50;99.90;;;;;;5027111;28;20541;-73
2021/12/05 17:44:05;;;;;;;15.05;12.77;;;2.50;99.90;;;;;;5025195;28;20029;-74
2021/12/05 17:46:33;;;;;;;19.45;15.52;;;2.60;99.90;;;;;;5024214;28;20439;-74
2021/12/05 17:49:01;;;;;;;12.80;10.32;;;2.50;99.90;;;;;;5023720;28;20017;-73
2021/12/05 17:51:34;;;;;;;12.60;9.73;;;2.50;99.90;;;;;;5025219;28;20439;-73
2021/12/05 17:54:00;;;;;;;11.40;9.07;;;2.50;99.90;;;;;;5020793;28;20021;-72
2021/12/05 17:56:38;;;;;;;11.63;9.75;;;2.60;99.90;;;;;;5023832;28;20061;-72
2021/12/05 17:59:13;;;;;;;15.45;9.93;;;2.60;99.90;;;;;;5025080;28;20049;-72
2021/12/05 18:04:30;;;;;;;10.70;9.60;;;2.40;99.90;;;;;;5025105;28;20124;-72
2021/12/05 18:06:57;;;;;;;12.68;10.40;;;2.70;99.90;;;;;;5025100;28;20168;-72
2021/12/05 18:09:23;;;;;;;20.23;16.10;;;2.50;99.90;;;;;;5023830;28;20021;-71
2021/12/05 18:11:50;;;;;;;21.33;15.18;;;2.30;99.90;;;;;;5023435;28;20087;-72
2021/12/05 18:14:16;;;;;;;16.88;14.30;;;2.20;99.90;;;;;;5024925;28;20049;-71
2021/12/05 18:16:41;;;;;;;16.42;14.55;;;2.30;99.90;;;;;;5023718;28;20501;-71